createdAt,value
2023-05-22T00:00:08.522Z,59.96
2023-05-22T00:02:43.208Z,59.50
2023-05-22T00:05:11.440Z,59.74
2023-05-22T00:07:38.929Z,59.96
2023-05-22T00:10:06.364Z,59.42
2023-05-22T00:12:33.030Z,58.65
2023-05-22T00:15:00.205Z,58.40
2023-05-22T00:17:26.947Z,58.99
2023-05-22T00:19:55.227Z,59.53
2023-05-22T00:22:22.008Z,59.91
2023-05-22T00:24:48.712Z,61.02
2023-05-22T00:27:15.342Z,60.38
2023-05-22T00:29:41.989Z,61.71
2023-05-22T00:32:08.611Z,61.83
2023-05-22T00:34:35.430Z,60.04
2023-05-22T00:37:02.066Z,61.19
2023-05-22T00:39:28.798Z,61.30
2023-05-22T00:41:55.414Z,61.29
2023-05-22T00:44:23.112Z,60.76
2023-05-22T00:46:49.817Z,60.02
2023-05-22T00:49:16.540Z,59.06
2023-05-22T00:51:43.153Z,59.17
2023-05-22T00:54:10.526Z,58.02
2023-05-22T00:56:37.157Z,58.83
2023-05-22T00:59:04.335Z,58.00
2023-05-22T01:01:33.816Z,58.43
2023-05-22T01:04:02.086Z,57.70
2023-05-22T01:06:32.230Z,59.20
2023-05-22T01:08:59.030Z,60.08
2023-05-22T01:11:28.431Z,61.20
2023-05-22T01:14:10.932Z,61.39
2023-05-22T01:16:41.932Z,61.09
2023-05-22T01:19:41.150Z,61.71
2023-05-22T01:22:26.630Z,61.01
2023-05-22T01:25:04.170Z,59.89
2023-05-22T01:27:49.129Z,59.42
2023-05-22T01:30:34.681Z,59.26
2023-05-22T01:33:02.941Z,60.13
2023-05-22T01:35:32.577Z,59.96
2023-05-22T01:38:00.249Z,59.86
2023-05-22T01:40:27.289Z,59.16
2023-05-22T01:42:54.097Z,59.61
2023-05-22T01:45:21.474Z,59.26
2023-05-22T01:47:48.744Z,59.21
2023-05-22T01:50:17.640Z,59.24
2023-05-22T01:53:03.198Z,58.42
2023-05-22T01:55:46.270Z,58.42
2023-05-22T01:58:30.043Z,58.32
2023-05-22T02:01:00.967Z,58.52
2023-05-22T02:03:30.169Z,58.82
2023-05-22T02:05:58.552Z,58.72
2023-05-22T02:08:25.984Z,59.14
2023-05-22T02:10:55.157Z,58.57
2023-05-22T02:13:23.258Z,58.03
2023-05-22T02:15:49.929Z,57.99
2023-05-22T02:18:16.868Z,56.65
2023-05-22T02:20:45.794Z,56.73
2023-05-22T02:23:12.872Z,55.33
2023-05-22T02:25:39.757Z,55.25
2023-05-22T02:28:06.498Z,54.51
2023-05-22T02:30:33.289Z,54.11
2023-05-22T02:33:00.417Z,54.94
2023-05-22T02:35:27.139Z,55.17
2023-05-22T02:37:56.153Z,55.03
2023-05-22T02:40:23.436Z,55.64
2023-05-22T02:42:50.330Z,55.53
2023-05-22T02:45:17.802Z,55.93
2023-05-22T02:47:45.889Z,56.40
2023-05-22T02:50:13.109Z,57.04
2023-05-22T02:52:40.859Z,56.15
2023-05-22T02:55:08.755Z,56.76
2023-05-22T02:57:35.545Z,57.35
2023-05-22T03:00:02.332Z,57.65
2023-05-22T03:02:30.218Z,58.20
2023-05-22T03:04:59.182Z,57.92
2023-05-22T03:07:26.983Z,57.97
2023-05-22T03:09:54.759Z,57.56
2023-05-22T03:12:23.602Z,57.71
2023-05-22T03:14:50.284Z,57.83
2023-05-22T03:17:16.957Z,57.39
2023-05-22T03:19:43.594Z,57.58
2023-05-22T03:22:10.514Z,58.02
2023-05-22T03:24:42.100Z,57.19
2023-05-22T03:27:08.917Z,56.94
2023-05-22T03:29:41.659Z,57.25
2023-05-22T03:32:08.566Z,56.41
2023-05-22T03:34:36.100Z,57.21
2023-05-22T03:37:06.693Z,56.96
2023-05-22T03:39:33.382Z,56.61
2023-05-22T03:42:10.097Z,56.83
2023-05-22T03:44:36.777Z,56.20
2023-05-22T03:47:03.459Z,56.98
2023-05-22T03:49:31.222Z,56.80
2023-05-22T03:51:57.885Z,56.96
2023-05-22T03:54:24.564Z,57.18
2023-05-22T03:56:51.277Z,57.27
2023-05-22T03:59:19.892Z,56.83
2023-05-22T04:01:46.753Z,57.98
2023-05-22T04:04:13.576Z,57.92
2023-05-22T04:06:43.508Z,58.30
2023-05-22T04:09:12.991Z,58.79
2023-05-22T04:11:40.019Z,59.46
2023-05-22T04:14:06.858Z,60.01
2023-05-22T04:16:33.919Z,59.71
2023-05-22T04:19:03.673Z,60.06
2023-05-22T04:21:34.338Z,60.33
2023-05-22T04:24:06.336Z,60.39
2023-05-22T04:26:33.414Z,60.25
2023-05-22T04:29:00.427Z,60.33
2023-05-22T04:31:28.189Z,60.80
2023-05-22T04:33:57.357Z,60.84
2023-05-22T04:36:29.249Z,61.09
2023-05-22T04:38:56.397Z,60.54
2023-05-22T04:41:26.949Z,60.80
2023-05-22T04:43:54.582Z,61.00
2023-05-22T04:46:21.485Z,60.34
2023-05-22T04:48:48.384Z,60.33
2023-05-22T04:51:16.253Z,59.97
2023-05-22T04:53:43.321Z,59.56
2023-05-22T04:56:10.122Z,59.36
2023-05-22T04:58:40.310Z,59.27
2023-05-22T05:01:07.193Z,59.34
2023-05-22T05:03:34.529Z,59.41
2023-05-22T05:06:01.352Z,58.95
2023-05-22T05:08:28.171Z,58.17
2023-05-22T05:10:54.838Z,60.03
2023-05-22T05:13:22.918Z,61.00
2023-05-22T05:15:49.868Z,60.72
2023-05-22T05:18:17.359Z,60.19
2023-05-22T05:20:44.053Z,60.79
2023-05-22T05:23:10.929Z,60.86
2023-05-22T05:25:40.825Z,59.61
2023-05-22T05:28:11.369Z,60.30
2023-05-22T05:30:40.830Z,59.94
2023-05-22T05:33:28.768Z,59.06
2023-05-22T05:36:16.470Z,59.17
2023-05-22T05:38:45.219Z,58.61
2023-05-22T05:41:13.067Z,58.09
2023-05-22T05:43:42.083Z,58.97
2023-05-22T05:46:09.752Z,58.56
2023-05-22T05:48:36.587Z,57.55
2023-05-22T05:51:03.481Z,57.92
2023-05-22T05:53:36.381Z,57.91
2023-05-22T05:56:03.819Z,57.33
2023-05-22T05:58:31.704Z,57.54
2023-05-22T06:01:19.493Z,57.14
2023-05-22T06:03:47.255Z,57.29
2023-05-22T06:06:20.201Z,56.80
2023-05-22T06:09:18.707Z,57.19
2023-05-22T06:12:21.961Z,57.44
2023-05-22T06:14:48.897Z,58.10
2023-05-22T06:17:15.896Z,57.99
2023-05-22T06:19:51.186Z,56.28
2023-05-22T06:22:18.038Z,56.37
2023-05-22T06:24:48.368Z,54.45
2023-05-22T06:27:20.838Z,54.00
2023-05-22T06:29:47.728Z,53.38
2023-05-22T06:32:18.642Z,53.83
2023-05-22T06:34:47.294Z,52.79
2023-05-22T06:37:16.157Z,52.97
2023-05-22T06:39:44.655Z,51.76
2023-05-22T06:42:32.506Z,52.75
2023-05-22T06:45:20.052Z,51.52
2023-05-22T06:48:04.085Z,52.42
2023-05-22T06:50:34.629Z,50.96
2023-05-22T06:53:02.286Z,51.41
2023-05-22T06:55:29.877Z,51.96
2023-05-22T06:58:07.724Z,51.36
2023-05-22T07:00:36.121Z,51.54
2023-05-22T07:03:08.402Z,52.32
2023-05-22T07:06:08.815Z,51.71
2023-05-22T07:08:35.887Z,52.08
2023-05-22T07:11:06.809Z,52.11
2023-05-22T07:13:33.556Z,51.72
2023-05-22T07:16:00.957Z,52.08
2023-05-22T07:18:27.735Z,53.08
2023-05-22T07:20:54.464Z,52.04
2023-05-22T07:23:24.426Z,53.11
2023-05-22T07:25:53.283Z,51.81
2023-05-22T07:28:22.773Z,52.14
2023-05-22T07:31:02.721Z,51.93
2023-05-22T07:33:30.267Z,52.22
2023-05-22T07:35:57.423Z,52.12
2023-05-22T07:38:24.979Z,49.60
2023-05-22T07:40:59.249Z,50.30
2023-05-22T07:43:27.453Z,50.02
2023-05-22T07:45:56.522Z,48.69
2023-05-22T07:48:26.345Z,48.81
2023-05-22T07:50:54.688Z,49.02
2023-05-22T07:53:21.776Z,49.79
2023-05-22T07:55:51.048Z,50.42
2023-05-22T07:58:18.097Z,48.54
2023-05-22T08:00:46.511Z,47.76
2023-05-22T08:03:13.722Z,47.86
2023-05-22T08:05:40.964Z,49.37
2023-05-22T08:08:07.865Z,47.52
2023-05-22T08:10:52.124Z,48.48
2023-05-22T08:13:22.793Z,47.86
2023-05-22T08:16:00.225Z,47.50
2023-05-22T08:18:29.287Z,48.75
2023-05-22T08:20:56.490Z,46.29
2023-05-22T08:23:24.306Z,46.79
2023-05-22T08:25:50.882Z,46.10
2023-05-22T08:28:17.587Z,45.40
2023-05-22T08:30:44.408Z,45.67
2023-05-22T08:33:12.208Z,45.19
2023-05-22T08:35:42.121Z,46.25
2023-05-22T08:38:08.748Z,46.06
2023-05-22T08:40:37.952Z,45.31
2023-05-22T08:43:06.270Z,44.78
2023-05-22T08:45:36.100Z,45.59
2023-05-22T08:48:05.069Z,45.61
2023-05-22T08:50:32.216Z,44.91
2023-05-22T08:53:01.707Z,45.58
2023-05-22T08:55:28.481Z,44.87
2023-05-22T08:57:58.560Z,46.07
2023-05-22T09:00:25.300Z,44.81
2023-05-22T09:02:52.613Z,44.75
2023-05-22T09:05:19.635Z,44.41
2023-05-22T09:07:46.229Z,43.64
2023-05-22T09:10:14.390Z,44.52
2023-05-22T09:12:59.854Z,44.88
2023-05-22T09:15:29.054Z,43.83
2023-05-22T09:17:56.723Z,44.75
2023-05-22T09:20:23.675Z,43.92
2023-05-22T09:22:50.332Z,43.10
2023-05-22T09:25:21.292Z,43.31
2023-05-22T09:27:49.232Z,42.74
2023-05-22T09:30:16.977Z,42.40
2023-05-22T09:32:43.825Z,42.64
2023-05-22T09:35:10.532Z,43.03
2023-05-22T09:37:37.320Z,43.45
2023-05-22T09:40:14.292Z,42.82
2023-05-22T09:42:43.812Z,42.37
2023-05-22T09:45:10.614Z,43.17
2023-05-22T09:47:37.395Z,42.26
2023-05-22T09:50:07.234Z,42.12
2023-05-22T09:52:35.901Z,42.08
2023-05-22T09:55:04.786Z,41.76
2023-05-22T09:57:35.623Z,41.79
2023-05-22T10:00:04.693Z,42.52
2023-05-22T10:02:38.955Z,40.53
2023-05-22T10:05:09.517Z,41.49
2023-05-22T10:07:39.551Z,41.94
2023-05-22T10:10:11.474Z,40.71
2023-05-22T10:12:50.560Z,40.70
2023-05-22T10:15:17.825Z,41.96
2023-05-22T10:17:44.574Z,40.95
2023-05-22T10:20:12.270Z,40.26
2023-05-22T10:22:39.023Z,40.15
2023-05-22T10:25:07.421Z,39.70
2023-05-22T10:27:37.188Z,38.55
2023-05-22T10:30:16.270Z,38.96
2023-05-22T10:33:21.542Z,40.48
2023-05-22T10:36:07.138Z,40.00
2023-05-22T10:38:42.828Z,40.19
2023-05-22T10:41:10.235Z,39.09
2023-05-22T10:43:43.489Z,39.96
2023-05-22T10:46:12.170Z,38.73
2023-05-22T10:48:43.848Z,38.42
2023-05-22T10:51:12.776Z,38.39
2023-05-22T10:53:41.023Z,38.66
2023-05-22T10:56:10.900Z,37.73
2023-05-22T10:58:37.640Z,37.15
2023-05-22T11:01:10.655Z,35.97
2023-05-22T11:03:57.677Z,36.26
2023-05-22T11:06:30.237Z,36.83
2023-05-22T11:08:59.993Z,35.14
2023-05-22T11:11:27.575Z,35.93
2023-05-22T11:14:03.150Z,34.09
2023-05-22T11:16:33.731Z,33.47
2023-05-22T11:19:21.120Z,33.36
2023-05-22T11:21:49.114Z,32.07
2023-05-22T11:24:17.602Z,31.25
2023-05-22T11:26:44.686Z,31.04
2023-05-22T11:29:11.583Z,29.55
2023-05-22T11:31:38.880Z,30.18
2023-05-22T11:34:05.640Z,31.23
2023-05-22T11:36:32.500Z,30.94
2023-05-22T11:39:00.082Z,29.96
2023-05-22T11:41:33.954Z,29.38
2023-05-22T11:44:01.577Z,29.41
2023-05-22T11:46:32.775Z,30.33
2023-05-22T11:48:59.528Z,29.81
2023-05-22T11:51:27.337Z,30.08
2023-05-22T11:53:54.098Z,29.72
2023-05-22T11:56:23.709Z,29.36
2023-05-22T11:58:50.728Z,29.51
2023-05-22T12:01:17.346Z,29.70
2023-05-22T12:03:44.214Z,28.38
2023-05-22T12:06:11.079Z,27.14
2023-05-22T12:08:37.868Z,27.48
2023-05-22T12:11:05.126Z,27.14
2023-05-22T12:13:32.076Z,26.60
2023-05-22T12:16:02.092Z,27.98
2023-05-22T12:18:38.544Z,29.89
2023-05-22T12:21:06.158Z,30.13
2023-05-22T12:23:32.754Z,29.66
2023-05-22T12:26:00.549Z,30.73
2023-05-22T12:28:27.635Z,30.13
2023-05-22T12:30:55.156Z,31.04
2023-05-22T12:33:31.234Z,30.65
2023-05-22T12:35:58.808Z,31.54
2023-05-22T12:38:33.506Z,30.66
2023-05-22T12:41:01.837Z,29.97
2023-05-22T12:43:33.796Z,30.05
2023-05-22T12:46:02.476Z,28.81
2023-05-22T12:48:30.050Z,28.27
2023-05-22T12:50:56.719Z,28.59
2023-05-22T12:53:23.419Z,29.42
2023-05-22T12:55:50.156Z,28.72
2023-05-22T12:58:16.955Z,30.25
2023-05-22T13:00:43.551Z,29.43
2023-05-22T13:03:12.107Z,29.43
2023-05-22T13:05:38.934Z,29.68
2023-05-22T13:08:06.038Z,29.93
2023-05-22T13:10:32.698Z,30.40
2023-05-22T13:12:59.383Z,30.35
2023-05-22T13:15:29.377Z,31.85
2023-05-22T13:17:56.976Z,32.85
2023-05-22T13:20:23.779Z,32.70
2023-05-22T13:22:50.730Z,31.51
2023-05-22T13:25:19.083Z,31.35
2023-05-22T13:27:46.832Z,30.66
2023-05-22T13:30:13.578Z,31.34
2023-05-22T13:32:40.491Z,30.43
2023-05-22T13:35:07.303Z,29.56
2023-05-22T13:37:34.039Z,30.08
2023-05-22T13:40:00.676Z,30.38
2023-05-22T13:42:27.427Z,30.30
2023-05-22T13:44:54.073Z,29.82
2023-05-22T13:47:23.405Z,30.15
2023-05-22T13:49:52.361Z,29.92
2023-05-22T13:52:18.969Z,29.91
2023-05-22T13:54:45.754Z,30.39
2023-05-22T13:57:12.580Z,29.67
2023-05-22T13:59:39.371Z,30.21
2023-05-22T14:02:06.117Z,30.72
2023-05-22T14:04:32.901Z,30.12
2023-05-22T14:06:59.593Z,29.81
2023-05-22T14:09:26.446Z,29.36
2023-05-22T14:11:53.034Z,29.59
2023-05-22T14:14:23.834Z,29.28
2023-05-22T14:16:54.204Z,29.69
2023-05-22T14:19:21.151Z,29.73
2023-05-22T14:21:51.769Z,30.87
2023-05-22T14:24:18.600Z,30.82
2023-05-22T14:26:45.346Z,30.26
2023-05-22T14:29:12.561Z,31.34
2023-05-22T14:31:51.473Z,31.81
2023-05-22T14:34:18.764Z,31.94
2023-05-22T14:36:45.380Z,32.35
2023-05-22T14:39:12.065Z,32.61
2023-05-22T14:41:38.678Z,32.46
2023-05-22T14:44:05.374Z,31.50
2023-05-22T14:46:32.081Z,32.40
2023-05-22T14:48:58.788Z,31.64
2023-05-22T14:51:25.487Z,31.45
2023-05-22T14:53:52.156Z,31.96
2023-05-22T14:56:18.782Z,31.29
2023-05-22T14:58:45.429Z,32.78
2023-05-22T15:01:12.106Z,32.12
2023-05-22T15:03:39.008Z,31.85
2023-05-22T15:06:06.084Z,31.80
2023-05-22T15:08:32.775Z,30.77
2023-05-22T15:10:59.395Z,31.59
2023-05-22T15:13:26.091Z,32.58
2023-05-22T15:15:52.875Z,32.14
2023-05-22T15:18:22.173Z,32.14
2023-05-22T15:20:49.201Z,32.70
2023-05-22T15:23:16.463Z,32.57
2023-05-22T15:25:43.593Z,32.54
2023-05-22T15:28:10.322Z,31.74
2023-05-22T15:30:38.929Z,33.13
2023-05-22T15:33:05.609Z,33.45
2023-05-22T15:35:32.380Z,33.13
2023-05-22T15:37:59.197Z,34.38
2023-05-22T15:40:26.052Z,33.75
2023-05-22T15:42:53.203Z,33.77
2023-05-22T15:45:20.693Z,33.29
2023-05-22T15:47:47.587Z,34.04
2023-05-22T15:50:14.316Z,34.51
2023-05-22T15:52:41.183Z,35.38
2023-05-22T15:55:07.993Z,34.66
2023-05-22T15:57:34.713Z,34.65
2023-05-22T16:00:01.477Z,35.16
2023-05-22T16:02:31.137Z,35.23
2023-05-22T16:04:57.989Z,35.34
2023-05-22T16:07:24.600Z,35.70
2023-05-22T16:09:51.276Z,36.01
2023-05-22T16:12:18.253Z,36.56
2023-05-22T16:14:47.334Z,36.53
2023-05-22T16:17:13.937Z,36.44
2023-05-22T16:19:40.689Z,36.40
2023-05-22T16:22:07.372Z,36.43
2023-05-22T16:24:34.035Z,36.90
2023-05-22T16:27:00.776Z,37.00
2023-05-22T16:29:27.405Z,37.23
2023-05-22T16:31:54.090Z,37.08
2023-05-22T16:34:20.782Z,38.01
2023-05-22T16:36:47.703Z,37.65
2023-05-22T16:39:15.580Z,37.61
2023-05-22T16:41:42.224Z,37.91
2023-05-22T16:44:08.896Z,37.75
2023-05-22T16:46:35.645Z,38.05
2023-05-22T16:49:02.322Z,38.31
2023-05-22T16:51:28.956Z,37.93
2023-05-22T16:53:55.635Z,38.36
2023-05-22T16:56:24.804Z,38.35
2023-05-22T16:58:51.569Z,38.45
2023-05-22T17:01:18.761Z,38.33
2023-05-22T17:03:45.611Z,39.11
2023-05-22T17:06:12.271Z,39.54
2023-05-22T17:08:38.883Z,39.04
2023-05-22T17:11:05.609Z,38.96
2023-05-22T17:13:32.367Z,39.35
2023-05-22T17:15:58.974Z,39.28
2023-05-22T17:18:26.000Z,39.55
2023-05-22T17:20:54.096Z,39.30
2023-05-22T17:23:20.936Z,39.89
2023-05-22T17:25:47.890Z,39.83
2023-05-22T17:28:14.744Z,40.95
2023-05-22T17:30:42.484Z,41.53
2023-05-22T17:33:09.557Z,40.28
2023-05-22T17:35:38.450Z,41.26
2023-05-22T17:38:05.235Z,40.48
2023-05-22T17:40:43.908Z,40.75
2023-05-22T17:43:11.844Z,41.71
2023-05-22T17:45:38.491Z,41.38
2023-05-22T17:48:06.314Z,41.45
2023-05-22T17:50:33.096Z,41.50
2023-05-22T17:52:59.848Z,40.72
2023-05-22T17:55:28.762Z,40.89
2023-05-22T17:57:56.137Z,41.50
2023-05-22T18:00:22.795Z,41.19
2023-05-22T18:02:49.569Z,41.76
2023-05-22T18:05:16.420Z,42.33
2023-05-22T18:07:43.609Z,42.57
2023-05-22T18:10:10.340Z,43.09
2023-05-22T18:12:38.276Z,43.67
2023-05-22T18:15:05.589Z,43.87
2023-05-22T18:17:32.630Z,44.17
2023-05-22T18:19:59.421Z,44.58
2023-05-22T18:22:26.061Z,44.89
2023-05-22T18:24:52.688Z,45.69
2023-05-22T18:27:19.375Z,45.39
2023-05-22T18:29:48.596Z,45.87
2023-05-22T18:32:15.213Z,46.84
2023-05-22T18:34:42.042Z,45.99
2023-05-22T18:37:11.940Z,46.35
2023-05-22T18:39:38.621Z,47.44
2023-05-22T18:42:05.592Z,46.38
2023-05-22T18:44:32.432Z,46.59
2023-05-22T18:46:59.144Z,47.05
2023-05-22T18:49:26.075Z,46.26
2023-05-22T18:51:52.724Z,45.75
2023-05-22T18:54:19.366Z,45.18
2023-05-22T18:56:46.047Z,46.25
2023-05-22T18:59:12.690Z,46.40
2023-05-22T19:01:39.535Z,46.44
2023-05-22T19:04:07.111Z,46.40
2023-05-22T19:06:34.218Z,45.85
2023-05-22T19:09:00.852Z,45.15
2023-05-22T19:11:27.676Z,45.87
2023-05-22T19:13:54.589Z,45.82
2023-05-22T19:16:21.223Z,45.35
2023-05-22T19:18:48.126Z,46.21
2023-05-22T19:21:14.725Z,47.56
2023-05-22T19:23:41.400Z,49.70
2023-05-22T19:26:08.151Z,51.09
2023-05-22T19:28:34.764Z,52.94
2023-05-22T19:31:03.556Z,54.22
2023-05-22T19:33:31.766Z,57.85
2023-05-22T19:35:58.829Z,67.08
2023-05-22T19:38:25.968Z,71.64
2023-05-22T19:40:52.726Z,73.76
2023-05-22T19:43:19.618Z,78.01
2023-05-22T19:45:46.531Z,79.47
2023-05-22T19:48:13.500Z,79.21
2023-05-22T19:50:41.182Z,76.18
2023-05-22T19:53:08.135Z,77.55
2023-05-22T19:55:35.296Z,78.29
2023-05-22T19:58:04.334Z,78.53
2023-05-22T20:00:31.901Z,80.57
2023-05-22T20:02:58.569Z,81.78
2023-05-22T20:05:27.817Z,81.38
2023-05-22T20:07:57.093Z,80.67
2023-05-22T20:10:26.801Z,80.42
2023-05-22T20:12:54.196Z,81.24
2023-05-22T20:15:28.743Z,82.81
2023-05-22T20:17:55.641Z,83.53
2023-05-22T20:20:24.635Z,85.20
2023-05-22T20:22:52.818Z,84.35
2023-05-22T20:25:21.267Z,84.87
2023-05-22T20:27:50.218Z,85.89
2023-05-22T20:30:16.787Z,87.94
2023-05-22T20:32:45.772Z,87.08
2023-05-22T20:35:13.236Z,88.26
2023-05-22T20:37:41.690Z,86.69
2023-05-22T20:40:09.600Z,85.49
2023-05-22T20:42:37.266Z,85.89
2023-05-22T20:45:07.555Z,85.47
2023-05-22T20:47:35.996Z,84.55
2023-05-22T20:50:02.767Z,83.71
2023-05-22T20:52:33.739Z,83.23
2023-05-22T20:55:00.617Z,83.65
2023-05-22T20:57:27.284Z,82.63
2023-05-22T20:59:54.174Z,81.84
2023-05-22T21:02:21.289Z,80.58
2023-05-22T21:04:47.891Z,80.49
2023-05-22T21:07:14.475Z,80.01
2023-05-22T21:09:44.261Z,79.86
2023-05-22T21:12:11.003Z,80.97
2023-05-22T21:14:39.903Z,80.78
2023-05-22T21:17:06.964Z,80.28
2023-05-22T21:19:33.769Z,80.35
2023-05-22T21:22:00.595Z,80.38
2023-05-22T21:24:31.591Z,80.52
2023-05-22T21:27:01.204Z,79.90
2023-05-22T21:29:27.902Z,79.57
2023-05-22T21:31:54.538Z,84.88
2023-05-22T21:34:23.379Z,82.83
2023-05-22T21:36:50.482Z,80.17
2023-05-22T21:39:17.179Z,79.73
2023-05-22T21:41:43.982Z,79.63
2023-05-22T21:44:10.652Z,83.36
2023-05-22T21:46:37.476Z,86.64
2023-05-22T21:49:06.273Z,86.91
2023-05-22T21:51:33.067Z,87.49
2023-05-22T21:53:59.844Z,84.08
2023-05-22T21:56:27.109Z,82.83
2023-05-22T21:58:53.745Z,82.66
2023-05-22T22:01:20.546Z,81.95
2023-05-22T22:03:47.280Z,80.00
2023-05-22T22:06:14.012Z,79.55
2023-05-22T22:08:40.774Z,79.03
2023-05-22T22:11:07.379Z,79.21
2023-05-22T22:13:33.980Z,79.63
2023-05-22T22:16:00.658Z,79.82
2023-05-22T22:18:34.622Z,79.53
2023-05-22T22:21:02.424Z,80.35
2023-05-22T22:23:29.626Z,81.88
2023-05-22T22:25:56.317Z,80.46
2023-05-22T22:28:22.996Z,81.04
2023-05-22T22:30:49.694Z,79.81
2023-05-22T22:33:16.352Z,79.92
2023-05-22T22:35:43.163Z,80.65
2023-05-22T22:38:09.869Z,82.09
2023-05-22T22:40:39.055Z,84.06
2023-05-22T22:43:08.364Z,82.04
2023-05-22T22:45:39.942Z,82.71
2023-05-22T22:48:07.044Z,86.44
2023-05-22T22:50:33.776Z,87.50
2023-05-22T22:53:00.666Z,87.15
2023-05-22T22:55:32.823Z,87.57
2023-05-22T22:58:01.932Z,85.35
2023-05-22T23:00:28.535Z,87.71
2023-05-22T23:02:55.404Z,87.57
2023-05-22T23:05:22.136Z,85.96
2023-05-22T23:07:48.893Z,84.62
2023-05-22T23:10:15.808Z,85.08
2023-05-22T23:12:42.884Z,86.36
2023-05-22T23:15:18.494Z,86.79
2023-05-22T23:17:50.244Z,85.37
2023-05-22T23:20:18.433Z,86.31
2023-05-22T23:22:45.021Z,87.31
2023-05-22T23:25:11.680Z,86.66
2023-05-22T23:27:38.259Z,85.64
2023-05-22T23:30:06.278Z,85.38
2023-05-22T23:32:32.963Z,85.99
2023-05-22T23:34:59.633Z,86.38
2023-05-22T23:37:27.346Z,87.11
2023-05-22T23:39:56.115Z,85.60
2023-05-22T23:42:22.973Z,88.27
2023-05-22T23:44:52.121Z,90.73
2023-05-22T23:47:19.096Z,90.19
2023-05-22T23:49:45.800Z,87.55
2023-05-22T23:52:13.126Z,87.88
2023-05-22T23:54:39.909Z,89.02
2023-05-22T23:57:10.546Z,88.50
2023-05-22T23:59:37.343Z,88.20
